I2476 URSS-UKDE
Flight info
| Callsign | I2476 |
|---|---|
| Flight time | N/A |
| Altitude | 25000 |
| Route | IRGI1A/20 DCT SOMON ZP |
| Aircraft | A320/M-S/7123 |
Departure
| Time | N/A |
|---|---|
| Airport | Sochi International Airport (URSS) |
Arrival
| Time | 2026-04-21 19:41 |
|---|---|
| Airport | Zaporizhzhia International Airport (UKDE) |
| Time | Latitude | Longitude | Altitude | Speed | Heading |
|---|---|---|---|---|---|
| 2026-04-21 18:39 | 43.45257 | 39.95831 | 0 ft | 0 kts | 208° |
| 2026-04-21 18:40 | 43.45252 | 39.95828 | 0 ft | 8 kts | 208° |
| 2026-04-21 18:41 | 43.45018 | 39.95651 | 0 ft | 77 kts | 208° |
| 2026-04-21 18:41 | 43.44379 | 39.95167 | 0 ft | 143 kts | 209° |
| 2026-04-21 18:41 | 43.43486 | 39.94492 | 0 ft | 165 kts | 210° |
| 2026-04-21 18:41 | 43.42450 | 39.93679 | 0 ft | 213 kts | 208° |
| 2026-04-21 18:42 | 43.41053 | 39.92913 | 0 ft | 219 kts | 197° |
| 2026-04-21 18:42 | 43.39671 | 39.92408 | 0 ft | 214 kts | 194° |
| 2026-04-21 18:42 | 43.38216 | 39.91965 | 0 ft | 218 kts | 192° |
| 2026-04-21 18:42 | 43.36762 | 39.91571 | 0 ft | 217 kts | 191° |
| 2026-04-21 18:43 | 43.35406 | 39.91229 | 0 ft | 222 kts | 191° |
| 2026-04-21 18:43 | 43.33912 | 39.90869 | 0 ft | 224 kts | 195° |
| 2026-04-21 18:43 | 43.32417 | 39.90583 | 0 ft | 219 kts | 195° |
| 2026-04-21 18:43 | 43.30985 | 39.90271 | 0 ft | 223 kts | 196° |
| 2026-04-21 18:44 | 43.29447 | 39.89880 | 0 ft | 254 kts | 198° |
| 2026-04-21 18:44 | 43.27881 | 39.88821 | 0 ft | 250 kts | 232° |
| 2026-04-21 18:44 | 43.27205 | 39.86760 | 0 ft | 245 kts | 269° |
| 2026-04-21 18:44 | 43.27414 | 39.84438 | 0 ft | 251 kts | 281° |
| 2026-04-21 18:45 | 43.27805 | 39.82156 | 0 ft | 251 kts | 284° |
| 2026-04-21 18:45 | 43.28366 | 39.79889 | 0 ft | 247 kts | 291° |
| 2026-04-21 18:45 | 43.29166 | 39.77727 | 0 ft | 262 kts | 298° |
| 2026-04-21 18:45 | 43.30165 | 39.75697 | 0 ft | 269 kts | 304° |
| 2026-04-21 18:46 | 43.31377 | 39.73652 | 0 ft | 283 kts | 308° |
| 2026-04-21 18:46 | 43.32690 | 39.71693 | 0 ft | 296 kts | 310° |
| 2026-04-21 18:46 | 43.34132 | 39.69779 | 0 ft | 309 kts | 317° |
| 2026-04-21 18:46 | 43.35887 | 39.68099 | 0 ft | 322 kts | 324° |
| 2026-04-21 18:47 | 43.37850 | 39.66530 | 0 ft | 335 kts | 327° |
| 2026-04-21 18:47 | 43.39919 | 39.65028 | 0 ft | 346 kts | 329° |
| 2026-04-21 18:47 | 43.42061 | 39.63566 | 0 ft | 357 kts | 330° |
| 2026-04-21 18:47 | 43.44135 | 39.62203 | 0 ft | 365 kts | 331° |
| 2026-04-21 18:48 | 43.46425 | 39.60739 | 0 ft | 373 kts | 332° |
| 2026-04-21 18:48 | 43.48671 | 39.59329 | 0 ft | 380 kts | 332° |
| 2026-04-21 18:48 | 43.51000 | 39.57880 | 0 ft | 386 kts | 332° |
| 2026-04-21 18:48 | 43.53439 | 39.56374 | 0 ft | 392 kts | 332° |
| 2026-04-21 18:49 | 43.55896 | 39.54863 | 0 ft | 397 kts | 333° |
| 2026-04-21 18:49 | 43.58363 | 39.53347 | 0 ft | 401 kts | 333° |
| 2026-04-21 18:49 | 43.60026 | 39.52326 | 0 ft | 403 kts | 333° |
| 2026-04-21 18:49 | 43.63353 | 39.50279 | 0 ft | 407 kts | 333° |
| 2026-04-21 18:50 | 43.65880 | 39.48723 | 0 ft | 410 kts | 333° |
| 2026-04-21 18:50 | 43.68345 | 39.47202 | 0 ft | 412 kts | 333° |
| 2026-04-21 18:50 | 43.71049 | 39.46186 | 0 ft | 423 kts | 352° |
| 2026-04-21 18:50 | 43.73873 | 39.46644 | 0 ft | 434 kts | 14° |
| 2026-04-21 18:51 | 43.76506 | 39.48614 | 0 ft | 443 kts | 37° |
| 2026-04-21 18:51 | 43.78515 | 39.51632 | 0 ft | 449 kts | 50° |
| 2026-04-21 18:51 | 43.80499 | 39.54784 | 0 ft | 446 kts | 38° |
| 2026-04-21 18:51 | 43.82965 | 39.56785 | 0 ft | 439 kts | 17° |
| 2026-04-21 18:52 | 43.85884 | 39.57473 | 0 ft | 431 kts | 355° |
| 2026-04-21 18:52 | 43.88642 | 39.56686 | 0 ft | 423 kts | 335° |
| 2026-04-21 18:52 | 43.91172 | 39.54996 | 0 ft | 420 kts | 329° |
| 2026-04-21 18:52 | 43.93677 | 39.53034 | 0 ft | 419 kts | 327° |
| 2026-04-21 18:53 | 43.96057 | 39.51052 | 0 ft | 419 kts | 325° |
| 2026-04-21 18:53 | 43.98436 | 39.48993 | 0 ft | 418 kts | 324° |
| 2026-04-21 18:53 | 44.00829 | 39.46869 | 0 ft | 417 kts | 324° |
| 2026-04-21 18:53 | 44.03268 | 39.44666 | 0 ft | 417 kts | 323° |
| 2026-04-21 18:54 | 44.05692 | 39.42450 | 0 ft | 415 kts | 323° |
| 2026-04-21 18:54 | 44.08078 | 39.40244 | 0 ft | 415 kts | 323° |
| 2026-04-21 18:54 | 44.10473 | 39.38010 | 0 ft | 413 kts | 323° |
| 2026-04-21 18:54 | 44.12859 | 39.35774 | 0 ft | 412 kts | 323° |
| 2026-04-21 18:55 | 44.14428 | 39.34293 | 0 ft | 411 kts | 323° |
| 2026-04-21 18:55 | 44.17592 | 39.31292 | 0 ft | 410 kts | 322° |
| 2026-04-21 18:55 | 44.19958 | 39.29033 | 0 ft | 415 kts | 322° |
| 2026-04-21 18:55 | 44.22296 | 39.26790 | 0 ft | 422 kts | 322° |
| 2026-04-21 18:56 | 44.24659 | 39.24515 | 0 ft | 428 kts | 322° |
| 2026-04-21 18:56 | 44.27139 | 39.22122 | 0 ft | 435 kts | 322° |
| 2026-04-21 18:56 | 44.29647 | 39.19700 | 0 ft | 440 kts | 322° |
| 2026-04-21 18:56 | 44.32092 | 39.17329 | 0 ft | 445 kts | 322° |
| 2026-04-21 18:57 | 44.34649 | 39.14843 | 0 ft | 449 kts | 322° |
| 2026-04-21 18:57 | 44.37153 | 39.12406 | 0 ft | 454 kts | 322° |
| 2026-04-21 18:57 | 44.39764 | 39.09861 | 0 ft | 457 kts | 322° |
| 2026-04-21 18:57 | 44.42331 | 39.07359 | 0 ft | 456 kts | 322° |
| 2026-04-21 18:58 | 44.44853 | 39.04901 | 0 ft | 455 kts | 322° |
| 2026-04-21 18:58 | 44.47403 | 39.02406 | 0 ft | 454 kts | 322° |
| 2026-04-21 18:58 | 44.49911 | 38.99948 | 0 ft | 455 kts | 322° |
| 2026-04-21 18:58 | 44.52486 | 38.97422 | 0 ft | 454 kts | 322° |
| 2026-04-21 18:59 | 44.55045 | 38.94910 | 0 ft | 454 kts | 322° |
| 2026-04-21 18:59 | 44.57584 | 38.92413 | 0 ft | 454 kts | 322° |
| 2026-04-21 18:59 | 44.60084 | 38.89952 | 0 ft | 455 kts | 322° |
| 2026-04-21 18:59 | 44.62587 | 38.87485 | 0 ft | 455 kts | 322° |
| 2026-04-21 19:00 | 44.65149 | 38.84956 | 0 ft | 454 kts | 322° |
| 2026-04-21 19:00 | 44.67620 | 38.82517 | 0 ft | 453 kts | 322° |
| 2026-04-21 19:00 | 44.70164 | 38.79999 | 0 ft | 454 kts | 322° |
| 2026-04-21 19:00 | 44.72748 | 38.77438 | 0 ft | 455 kts | 322° |
| 2026-04-21 19:01 | 44.75320 | 38.74885 | 0 ft | 455 kts | 322° |
| 2026-04-21 19:01 | 44.77846 | 38.72376 | 0 ft | 454 kts | 322° |
| 2026-04-21 19:01 | 44.80346 | 38.69893 | 0 ft | 454 kts | 322° |
| 2026-04-21 19:01 | 44.82893 | 38.67358 | 0 ft | 454 kts | 322° |
| 2026-04-21 19:02 | 44.85307 | 38.64953 | 0 ft | 454 kts | 322° |
| 2026-04-21 19:02 | 44.87806 | 38.62459 | 0 ft | 454 kts | 322° |
| 2026-04-21 19:02 | 44.90305 | 38.59964 | 0 ft | 454 kts | 322° |
| 2026-04-21 19:02 | 44.92802 | 38.57468 | 0 ft | 454 kts | 322° |
| 2026-04-21 19:03 | 44.95280 | 38.54989 | 0 ft | 454 kts | 322° |
| 2026-04-21 19:03 | 44.97828 | 38.52436 | 0 ft | 454 kts | 322° |
| 2026-04-21 19:03 | 45.00292 | 38.49965 | 0 ft | 454 kts | 322° |
| 2026-04-21 19:03 | 45.02761 | 38.47486 | 0 ft | 454 kts | 322° |
| 2026-04-21 19:04 | 45.05251 | 38.44984 | 0 ft | 454 kts | 322° |
| 2026-04-21 19:04 | 45.07791 | 38.42427 | 0 ft | 454 kts | 322° |
| 2026-04-21 19:04 | 45.10296 | 38.39903 | 0 ft | 454 kts | 322° |
| 2026-04-21 19:04 | 45.12844 | 38.37333 | 0 ft | 454 kts | 322° |
| 2026-04-21 19:05 | 45.15371 | 38.34781 | 0 ft | 453 kts | 322° |
| 2026-04-21 19:05 | 45.17905 | 38.32220 | 0 ft | 454 kts | 322° |
| 2026-04-21 19:05 | 45.20382 | 38.29714 | 0 ft | 454 kts | 322° |
| 2026-04-21 19:05 | 45.22927 | 38.27135 | 0 ft | 454 kts | 322° |
| 2026-04-21 19:06 | 45.25399 | 38.24627 | 0 ft | 454 kts | 322° |
| 2026-04-21 19:06 | 45.27919 | 38.22069 | 0 ft | 454 kts | 322° |
| 2026-04-21 19:06 | 45.30435 | 38.19513 | 0 ft | 453 kts | 322° |
| 2026-04-21 19:06 | 45.32867 | 38.17038 | 0 ft | 454 kts | 322° |
| 2026-04-21 19:07 | 45.35296 | 38.14564 | 0 ft | 454 kts | 322° |
| 2026-04-21 19:07 | 45.36991 | 38.12836 | 0 ft | 454 kts | 322° |
| 2026-04-21 19:07 | 45.39917 | 38.09848 | 0 ft | 454 kts | 322° |
| 2026-04-21 19:07 | 45.42464 | 38.07246 | 0 ft | 454 kts | 322° |
| 2026-04-21 19:08 | 45.45038 | 38.04614 | 0 ft | 454 kts | 322° |
| 2026-04-21 19:08 | 45.46648 | 38.02965 | 0 ft | 454 kts | 322° |
| 2026-04-21 19:08 | 45.49637 | 37.99901 | 0 ft | 454 kts | 321° |
| 2026-04-21 19:08 | 45.51271 | 37.98225 | 0 ft | 454 kts | 321° |
| 2026-04-21 19:09 | 45.53563 | 37.95871 | 0 ft | 454 kts | 321° |
| 2026-04-21 19:09 | 45.56027 | 37.93338 | 0 ft | 454 kts | 321° |
| 2026-04-21 19:09 | 45.58521 | 37.90772 | 0 ft | 454 kts | 321° |
| 2026-04-21 19:09 | 45.61048 | 37.88167 | 0 ft | 454 kts | 321° |
| 2026-04-21 19:10 | 45.63594 | 37.85542 | 0 ft | 453 kts | 321° |
| 2026-04-21 19:10 | 45.66157 | 37.82895 | 0 ft | 454 kts | 321° |
| 2026-04-21 19:10 | 45.68650 | 37.80317 | 0 ft | 454 kts | 321° |
| 2026-04-21 19:10 | 45.71174 | 37.77704 | 0 ft | 454 kts | 321° |
| 2026-04-21 19:11 | 45.73661 | 37.75128 | 0 ft | 454 kts | 321° |
| 2026-04-21 19:11 | 45.76178 | 37.72516 | 0 ft | 454 kts | 321° |
| 2026-04-21 19:11 | 45.78695 | 37.69904 | 0 ft | 453 kts | 321° |
| 2026-04-21 19:11 | 45.81249 | 37.67248 | 0 ft | 453 kts | 321° |
| 2026-04-21 19:12 | 45.83721 | 37.64674 | 0 ft | 454 kts | 321° |
| 2026-04-21 19:12 | 45.86167 | 37.62125 | 0 ft | 454 kts | 321° |
| 2026-04-21 19:12 | 45.88549 | 37.59639 | 0 ft | 455 kts | 321° |
| 2026-04-21 19:12 | 45.90844 | 37.57242 | 0 ft | 455 kts | 321° |
| 2026-04-21 19:13 | 45.93277 | 37.54698 | 0 ft | 454 kts | 321° |
| 2026-04-21 19:13 | 45.95720 | 37.52142 | 0 ft | 453 kts | 321° |
| 2026-04-21 19:13 | 45.98140 | 37.49606 | 0 ft | 453 kts | 321° |
| 2026-04-21 19:13 | 46.00649 | 37.46975 | 0 ft | 454 kts | 321° |
| 2026-04-21 19:14 | 46.03099 | 37.44401 | 0 ft | 454 kts | 321° |
| 2026-04-21 19:14 | 46.05528 | 37.41847 | 0 ft | 454 kts | 321° |
| 2026-04-21 19:14 | 46.07970 | 37.39277 | 0 ft | 454 kts | 321° |
| 2026-04-21 19:14 | 46.10362 | 37.36757 | 0 ft | 454 kts | 321° |
| 2026-04-21 19:15 | 46.12813 | 37.34172 | 0 ft | 453 kts | 321° |
| 2026-04-21 19:15 | 46.15230 | 37.31620 | 0 ft | 454 kts | 321° |
| 2026-04-21 19:15 | 46.36733 | 37.08820 | 0 ft | 454 kts | 321° |
| 2026-04-21 19:15 | 46.64822 | 36.78669 | 0 ft | 453 kts | 321° |
| 2026-04-21 19:16 | 46.71043 | 36.71931 | 0 ft | 454 kts | 321° |
| 2026-04-21 19:16 | 46.72919 | 36.69892 | 0 ft | 454 kts | 321° |
| 2026-04-21 19:16 | 46.75356 | 36.67239 | 0 ft | 453 kts | 321° |
| 2026-04-21 19:16 | 46.77604 | 36.64788 | 0 ft | 453 kts | 321° |
| 2026-04-21 19:17 | 46.82266 | 36.59697 | 0 ft | 454 kts | 320° |
| 2026-04-21 19:17 | 46.84340 | 36.57429 | 0 ft | 454 kts | 320° |
| 2026-04-21 19:17 | 46.86716 | 36.54830 | 0 ft | 454 kts | 320° |
| 2026-04-21 19:18 | 46.89103 | 36.52216 | 0 ft | 453 kts | 320° |
| 2026-04-21 19:18 | 46.91602 | 36.49478 | 0 ft | 453 kts | 320° |
| 2026-04-21 19:18 | 46.94004 | 36.46843 | 0 ft | 453 kts | 320° |
| 2026-04-21 19:18 | 46.96477 | 36.44128 | 0 ft | 454 kts | 320° |
| 2026-04-21 19:19 | 46.98935 | 36.41426 | 0 ft | 454 kts | 320° |
| 2026-04-21 19:19 | 47.01221 | 36.38911 | 0 ft | 454 kts | 320° |
| 2026-04-21 19:19 | 47.03630 | 36.36259 | 0 ft | 453 kts | 320° |
| 2026-04-21 19:19 | 47.06074 | 36.33565 | 0 ft | 453 kts | 320° |
| 2026-04-21 19:20 | 47.08555 | 36.30826 | 0 ft | 453 kts | 320° |
| 2026-04-21 19:20 | 47.10922 | 36.28208 | 0 ft | 453 kts | 320° |
| 2026-04-21 19:20 | 47.13420 | 36.25444 | 0 ft | 454 kts | 320° |
| 2026-04-21 19:20 | 47.15929 | 36.22664 | 0 ft | 452 kts | 320° |
| 2026-04-21 19:21 | 47.18431 | 36.19890 | 0 ft | 445 kts | 320° |
| 2026-04-21 19:21 | 47.20856 | 36.17201 | 0 ft | 437 kts | 320° |
| 2026-04-21 19:21 | 47.23268 | 36.14524 | 0 ft | 431 kts | 320° |
| 2026-04-21 19:21 | 47.25650 | 36.11875 | 0 ft | 428 kts | 320° |
| 2026-04-21 19:22 | 47.27950 | 36.09311 | 0 ft | 414 kts | 320° |
| 2026-04-21 19:22 | 47.30215 | 36.06786 | 0 ft | 407 kts | 320° |
| 2026-04-21 19:22 | 47.32432 | 36.04305 | 0 ft | 406 kts | 319° |
| 2026-04-21 19:22 | 47.34216 | 36.01489 | 0 ft | 401 kts | 300° |
| 2026-04-21 19:23 | 47.35125 | 35.97705 | 0 ft | 397 kts | 276° |
| 2026-04-21 19:23 | 47.34990 | 35.93682 | 0 ft | 397 kts | 264° |
| 2026-04-21 19:23 | 47.35177 | 35.89640 | 0 ft | 399 kts | 285° |
| 2026-04-21 19:23 | 47.36466 | 35.86131 | 0 ft | 403 kts | 306° |
| 2026-04-21 19:24 | 47.38286 | 35.83137 | 0 ft | 404 kts | 311° |
| 2026-04-21 19:24 | 47.40262 | 35.80185 | 0 ft | 405 kts | 313° |
| 2026-04-21 19:24 | 47.42178 | 35.77414 | 0 ft | 406 kts | 313° |
| 2026-04-21 19:24 | 47.44173 | 35.74575 | 0 ft | 405 kts | 314° |
| 2026-04-21 19:25 | 47.46160 | 35.71798 | 0 ft | 406 kts | 316° |
| 2026-04-21 19:25 | 47.48588 | 35.69712 | 0 ft | 415 kts | 338° |
| 2026-04-21 19:25 | 47.51389 | 35.69046 | 0 ft | 421 kts | 352° |
| 2026-04-21 19:25 | 47.54147 | 35.68883 | 0 ft | 422 kts | 355° |
| 2026-04-21 19:26 | 47.57078 | 35.68829 | 0 ft | 423 kts | 356° |
| 2026-04-21 19:26 | 47.59945 | 35.68823 | 0 ft | 424 kts | 356° |
| 2026-04-21 19:26 | 47.62851 | 35.68842 | 0 ft | 423 kts | 356° |
| 2026-04-21 19:26 | 47.65733 | 35.68872 | 0 ft | 423 kts | 357° |
| 2026-04-21 19:27 | 47.68597 | 35.68906 | 0 ft | 423 kts | 357° |
| 2026-04-21 19:27 | 47.71481 | 35.69443 | 0 ft | 432 kts | 14° |
| 2026-04-21 19:27 | 47.74195 | 35.71044 | 0 ft | 434 kts | 20° |
| 2026-04-21 19:27 | 47.76857 | 35.72829 | 0 ft | 434 kts | 21° |
| 2026-04-21 19:28 | 47.79552 | 35.74601 | 0 ft | 434 kts | 20° |
| 2026-04-21 19:28 | 47.82286 | 35.76272 | 0 ft | 433 kts | 18° |
| 2026-04-21 19:28 | 47.85062 | 35.77818 | 0 ft | 432 kts | 16° |
| 2026-04-21 19:28 | 47.87820 | 35.79212 | 0 ft | 431 kts | 14° |
| 2026-04-21 19:29 | 47.90689 | 35.80531 | 0 ft | 431 kts | 13° |
| 2026-04-21 19:29 | 47.93585 | 35.81759 | 0 ft | 435 kts | 12° |
| 2026-04-21 19:29 | 47.96454 | 35.82886 | 0 ft | 423 kts | 11° |
| 2026-04-21 19:29 | 47.99199 | 35.83892 | 0 ft | 412 kts | 9° |
| 2026-04-21 19:30 | 48.01930 | 35.84853 | 0 ft | 403 kts | 12° |
| 2026-04-21 19:30 | 48.04527 | 35.86309 | 0 ft | 398 kts | 15° |
| 2026-04-21 19:30 | 48.07150 | 35.86808 | 0 ft | 382 kts | 351° |
| 2026-04-21 19:30 | 48.09515 | 35.85755 | 0 ft | 366 kts | 327° |
| 2026-04-21 19:31 | 48.11299 | 35.83318 | 0 ft | 345 kts | 301° |
| 2026-04-21 19:31 | 48.12086 | 35.80397 | 0 ft | 320 kts | 283° |
| 2026-04-21 19:31 | 48.12496 | 35.77477 | 0 ft | 296 kts | 279° |
| 2026-04-21 19:31 | 48.12769 | 35.74749 | 0 ft | 271 kts | 276° |
| 2026-04-21 19:32 | 48.12911 | 35.72178 | 0 ft | 249 kts | 266° |
| 2026-04-21 19:32 | 48.12376 | 35.69971 | 0 ft | 229 kts | 238° |
| 2026-04-21 19:32 | 48.11492 | 35.68252 | 0 ft | 217 kts | 235° |
| 2026-04-21 19:32 | 48.10701 | 35.66590 | 0 ft | 216 kts | 241° |
| 2026-04-21 19:33 | 48.10201 | 35.65377 | 0 ft | 216 kts | 242° |
| 2026-04-21 19:33 | 48.09329 | 35.62816 | 0 ft | 214 kts | 258° |
| 2026-04-21 19:33 | 48.09079 | 35.60736 | 0 ft | 211 kts | 263° |
| 2026-04-21 19:33 | 48.08957 | 35.59185 | 0 ft | 210 kts | 264° |
| 2026-04-21 19:34 | 48.08822 | 35.57164 | 0 ft | 205 kts | 265° |
| 2026-04-21 19:34 | 48.08704 | 35.55214 | 0 ft | 197 kts | 264° |
| 2026-04-21 19:34 | 48.08430 | 35.53378 | 0 ft | 189 kts | 254° |
| 2026-04-21 19:34 | 48.07986 | 35.51665 | 0 ft | 187 kts | 239° |
| 2026-04-21 19:35 | 48.07141 | 35.50303 | 0 ft | 198 kts | 226° |
| 2026-04-21 19:35 | 48.05201 | 35.47813 | 0 ft | 190 kts | 237° |
| 2026-04-21 19:35 | 48.04530 | 35.46385 | 0 ft | 187 kts | 242° |
| 2026-04-21 19:36 | 48.03936 | 35.44902 | 0 ft | 187 kts | 243° |
| 2026-04-21 19:36 | 48.03330 | 35.43323 | 0 ft | 185 kts | 244° |
| 2026-04-21 19:36 | 48.02750 | 35.41788 | 0 ft | 183 kts | 244° |
| 2026-04-21 19:36 | 48.01960 | 35.40374 | 0 ft | 190 kts | 211° |
| 2026-04-21 19:37 | 48.00674 | 35.39701 | 0 ft | 207 kts | 203° |
| 2026-04-21 19:37 | 47.99325 | 35.39111 | 0 ft | 206 kts | 204° |
| 2026-04-21 19:37 | 47.98098 | 35.38524 | 0 ft | 186 kts | 208° |
| 2026-04-21 19:37 | 47.97044 | 35.37916 | 0 ft | 158 kts | 210° |
| 2026-04-21 19:38 | 47.96135 | 35.37359 | 0 ft | 157 kts | 211° |
| 2026-04-21 19:38 | 47.95218 | 35.36782 | 0 ft | 154 kts | 211° |
| 2026-04-21 19:38 | 47.94608 | 35.36397 | 0 ft | 154 kts | 211° |
| 2026-04-21 19:38 | 47.93296 | 35.35805 | 0 ft | 158 kts | 204° |
| 2026-04-21 19:39 | 47.92404 | 35.35284 | 0 ft | 134 kts | 211° |
| 2026-04-21 19:39 | 47.91631 | 35.34968 | 0 ft | 112 kts | 207° |
| 2026-04-21 19:39 | 47.90944 | 35.34677 | 0 ft | 108 kts | 220° |
| 2026-04-21 19:39 | 47.90381 | 35.34015 | 0 ft | 105 kts | 232° |
| 2026-04-21 19:40 | 47.89827 | 35.33547 | 0 ft | 111 kts | 206° |
| 2026-04-21 19:40 | 47.89077 | 35.33155 | 0 ft | 115 kts | 217° |
| 2026-04-21 19:40 | 47.88487 | 35.32714 | 0 ft | 106 kts | 212° |
| 2026-04-21 19:40 | 47.87861 | 35.32259 | 0 ft | 111 kts | 214° |
| 2026-04-21 19:41 | 47.87390 | 35.31923 | 0 ft | 55 kts | 203° |
| 2026-04-21 19:41 | 47.87276 | 35.31848 | 0 ft | 6 kts | 204° |
| 2026-04-21 19:41 | 47.87248 | 35.31830 | 0 ft | 3 kts | 204° |
| 2026-04-21 19:41 | 47.87240 | 35.31825 | 0 ft | 0 kts | 204° |